Montpezat d'Agenais

FR-0411 · Lot-et-Garonne, Nouvelle-Aquitaine, 法国

2023年2月2日 13:002023年2月2日 22:00有效
时间
星期四
13:00
星期四
14:00
30%
星期四
15:00
30%
星期四
16:00
30%
星期四
17:00
30%
星期四
18:00
星期四
19:00
星期四
20:00
星期四
21:00
代码
VFR
MVFR
MVFR
MVFR
MVFR
VFR
VFR
VFR
VFR
天气
天空晴朗
天空晴朗
天空晴朗
天空晴朗
天空晴朗
天空晴朗
天空晴朗
天空晴朗
天空晴朗
能见度
10 km+
10 km+
10 km+
10 km+
10 km+
10 km+
10 km+
10 km+
10 km+
天花板
-
-
-
-
-
-
-
-
-
Var
Var
Var
Var
Var
Var
Var
Var
Var
Var
Var
Var
Var
Var
Var
Var
Var
Var
速度
3 kt
3 kt
3 kt
3 kt
3 kt
3 kt
3 kt
3 kt
3 kt
阵风
温度/星期日
18:08

原版的

TAF LFBA 021100Z 0212/0221 VRB03KT CAVOK
PROB30 TEMPO 0213/0217 BKN025

TAF Montpezat d'Agenais

Montpezat d'Agenais是,法国中的小机场。 视场标高为120 ft。 该领域的国际民航组织标志是FR-0411.

这份报告是针对2023年2月2日 12:00, 当地时间在Agen-La Garenne Airport进行的。 从2023年2月2日 13:00到2023年2月2日 22:00, 当地时间有效.

预报

  • 在星期四 13:00和22:00之间

    • 风: 可变方向的风很小或没有。
    • CAVOK: 天气为CAVOK。这意味着在5.000 ft或MSA(最低安全高度)以下(以较高者为准)以下没有云。这也意味着没有观测到积雨云或高耸的积云,可见度为10 km 或者更多或更高。此外,不会有雾,降雨或其他重要天气。
  • 暂时在星期四 14:00和18:00之间 ({一个机会)

    • 乌云: 碎云在2.500 ft的高度.

白天

今天,太阳从08:15升起,在18:08降落。 这适用于Montpezat d'Agenais,世界夏令时可能有所不同。 当地时间与世界标准时间之间的时差为+1 小时。 当前,没有夏令时有效。

我们和第三方通过cookies跟踪您在我们网站上的互联网行为。如果你继续,我们认为你同意我们的饼干政策